Time;durP1;ratioP1;P1;durP2;ratioP2;P2;SDS_P1;SDS_P2;PMS_P1;PMS_P2;Temp;Humidity;BMP_temperature;BMP_pressure;BME280_temperature;BME280_humidity;BME280_pressure;Samples;Min_cycle;Max_cycle;Signal;HPM_P1;HPM_P2
2023/01/23 00:01:11;;;;;;;9.37;7.80;;;4.40;99.90;;;;;;4991835;28;20177;-55
2023/01/23 00:03:37;;;;;;;9.50;8.07;;;4.40;99.90;;;;;;4991486;28;20207;-52
2023/01/23 00:06:06;;;;;;;9.00;7.87;;;4.40;99.90;;;;;;4991662;28;20260;-54
2023/01/23 00:08:32;;;;;;;9.00;8.07;;;4.40;99.90;;;;;;4991705;28;20205;-52
2023/01/23 00:10:58;;;;;;;9.47;8.10;;;4.40;99.90;;;;;;4991654;28;20759;-53
2023/01/23 00:13:24;;;;;;;9.70;8.13;;;4.40;99.90;;;;;;4991617;28;20323;-53
2023/01/23 00:15:49;;;;;;;10.30;9.10;;;4.40;99.90;;;;;;4991389;28;20252;-53
2023/01/23 00:18:15;;;;;;;10.40;9.17;;;4.40;99.90;;;;;;4991416;28;20215;-55
2023/01/23 00:20:41;;;;;;;9.97;8.30;;;4.40;99.90;;;;;;4991780;28;20177;-55
2023/01/23 00:23:07;;;;;;;11.47;9.90;;;4.40;99.90;;;;;;4991551;28;20574;-53
2023/01/23 00:25:34;;;;;;;12.53;10.70;;;4.40;99.90;;;;;;4991557;28;20715;-54
2023/01/23 00:28:00;;;;;;;13.67;11.00;;;4.40;99.90;;;;;;4991558;28;20623;-55
2023/01/23 00:30:25;;;;;;;13.70;10.63;;;4.40;99.90;;;;;;4991441;28;20181;-56
2023/01/23 00:32:51;;;;;;;12.53;10.83;;;4.40;99.90;;;;;;4991266;28;20209;-53
2023/01/23 00:35:16;;;;;;;13.57;11.30;;;4.40;99.90;;;;;;4992551;28;20612;-51
2023/01/23 00:37:42;;;;;;;16.23;12.13;;;4.90;99.90;;;;;;4991620;28;20589;-53
2023/01/23 00:40:08;;;;;;;15.10;12.03;;;4.40;99.90;;;;;;4991551;28;20173;-53
2023/01/23 00:42:34;;;;;;;17.67;12.37;;;4.40;99.90;;;;;;4991469;28;20543;-51
2023/01/23 00:44:59;;;;;;;14.57;12.30;;;4.40;99.90;;;;;;4991088;28;20187;-55
2023/01/23 00:47:25;;;;;;;16.60;13.17;;;4.30;99.90;;;;;;4994145;28;20220;-55
2023/01/23 00:49:52;;;;;;;15.23;12.90;;;4.30;99.90;;;;;;4995514;28;20284;-55
2023/01/23 00:52:19;;;;;;;15.87;12.90;;;4.20;99.90;;;;;;4994983;28;20255;-53
2023/01/23 00:54:44;;;;;;;15.63;13.03;;;4.20;99.90;;;;;;4994929;28;20191;-55
2023/01/23 00:57:10;;;;;;;17.13;12.53;;;4.20;99.90;;;;;;4994625;28;20259;-50
2023/01/23 00:59:35;;;;;;;16.70;12.77;;;4.20;99.90;;;;;;4991465;28;20185;-55
2023/01/23 01:02:01;;;;;;;15.93;12.67;;;4.20;99.90;;;;;;4991575;28;20572;-51
2023/01/23 01:04:27;;;;;;;15.90;12.90;;;4.20;99.90;;;;;;4994886;28;20212;-54
2023/01/23 01:06:52;;;;;;;15.77;12.73;;;4.20;99.90;;;;;;4993197;28;20233;-50
2023/01/23 01:09:18;;;;;;;15.40;12.20;;;4.10;99.90;;;;;;4992744;28;20188;-55
2023/01/23 01:11:43;;;;;;;16.17;12.90;;;4.10;99.90;;;;;;4985991;28;20546;-52
2023/01/23 01:14:09;;;;;;;16.43;12.73;;;4.10;99.90;;;;;;4990206;28;20633;-55
2023/01/23 01:16:34;;;;;;;15.57;12.50;;;4.10;99.90;;;;;;4974917;28;20174;-54
2023/01/23 01:19:00;;;;;;;14.80;12.57;;;4.80;99.90;;;;;;4976140;28;20165;-53
2023/01/23 01:21:26;;;;;;;16.80;13.70;;;4.10;99.90;;;;;;4994733;28;20189;-53
2023/01/23 01:23:51;;;;;;;17.10;13.60;;;4.10;99.90;;;;;;4992149;28;20351;-49
2023/01/23 01:26:17;;;;;;;17.30;13.53;;;4.00;99.90;;;;;;4987183;28;20260;-53
2023/01/23 01:28:43;;;;;;;15.97;13.30;;;4.10;99.90;;;;;;4974886;28;20209;-53
2023/01/23 01:31:13;;;;;;;17.77;14.53;;;4.10;99.90;;;;;;4991925;28;20280;-53
2023/01/23 01:33:39;;;;;;;18.07;14.47;;;4.00;99.90;;;;;;4994203;28;20227;-54
2023/01/23 01:36:13;;;;;;;17.80;14.57;;;4.10;99.90;;;;;;4976841;28;20184;-52
2023/01/23 01:38:38;;;;;;;20.60;15.80;;;4.10;99.90;;;;;;4993986;28;20614;-55
2023/01/23 01:41:04;;;;;;;22.60;17.27;;;4.00;99.90;;;;;;4993185;28;20272;-55
2023/01/23 01:43:30;;;;;;;20.43;16.27;;;3.90;99.90;;;;;;4993889;28;20551;-52
2023/01/23 01:46:21;;;;;;;21.40;16.90;;;3.90;99.90;;;;;;4992255;28;20243;-56
2023/01/23 01:48:50;;;;;;;20.27;15.70;;;4.00;99.90;;;;;;4992488;28;20185;-53
2023/01/23 01:51:37;;;;;;;20.20;15.93;;;4.00;99.90;;;;;;4976470;28;20178;-54
2023/01/23 01:54:20;;;;;;;21.00;15.63;;;4.00;99.90;;;;;;4973621;28;20221;-52
2023/01/23 01:57:00;;;;;;;19.90;14.83;;;4.00;99.90;;;;;;4974416;28;20405;-53
2023/01/23 01:59:30;;;;;;;22.37;16.93;;;4.10;99.90;;;;;;4976487;28;20205;-55
2023/01/23 02:02:03;;;;;;;21.00;16.00;;;4.10;99.90;;;;;;4993836;28;20181;-54
2023/01/23 02:04:32;;;;;;;19.73;15.93;;;4.10;99.90;;;;;;4989285;28;20205;-54
2023/01/23 02:07:01;;;;;;;18.97;15.07;;;4.10;99.90;;;;;;4974074;28;20201;-51
2023/01/23 02:09:27;;;;;;;22.43;16.43;;;4.10;99.90;;;;;;4976189;28;20193;-53
2023/01/23 02:11:53;;;;;;;19.90;15.63;;;4.10;99.90;;;;;;4993882;28;20182;-54
2023/01/23 02:14:19;;;;;;;19.80;15.47;;;4.10;99.90;;;;;;4992428;28;20189;-52
2023/01/23 02:16:49;;;;;;;19.40;14.87;;;4.10;99.90;;;;;;4992438;28;20186;-51
2023/01/23 02:19:53;;;;;;;19.43;15.40;;;4.20;99.90;;;;;;4992284;28;20269;-54
2023/01/23 02:22:31;;;;;;;20.13;16.27;;;4.10;99.90;;;;;;4973289;28;20421;-51
2023/01/23 02:25:25;;;;;;;21.53;16.33;;;4.10;99.90;;;;;;4980193;28;20185;-53
2023/01/23 02:27:50;;;;;;;21.13;16.70;;;4.10;99.90;;;;;;4992742;28;20217;-54
2023/01/23 02:30:18;;;;;;;21.43;15.87;;;4.10;99.90;;;;;;4984450;28;20910;-55
2023/01/23 02:32:43;;;;;;;23.77;16.63;;;4.10;99.90;;;;;;4973020;28;20528;-54
2023/01/23 02:35:20;;;;;;;21.27;16.63;;;4.10;99.90;;;;;;4981167;28;20189;-55
2023/01/23 02:37:50;;;;;;;22.07;16.67;;;4.20;99.90;;;;;;4992828;28;20177;-54
2023/01/23 02:40:16;;;;;;;22.33;18.17;;;4.10;99.90;;;;;;4984360;28;20185;-52
2023/01/23 02:42:45;;;;;;;23.00;17.93;;;4.20;99.90;;;;;;4973495;28;20701;-55
2023/01/23 02:45:10;;;;;;;20.57;15.93;;;4.20;99.90;;;;;;4975192;28;20660;-55
2023/01/23 02:47:36;;;;;;;21.77;17.40;;;4.20;99.90;;;;;;4973310;28;20518;-56
2023/01/23 02:50:02;;;;;;;22.47;17.63;;;4.20;99.90;;;;;;4982228;28;20276;-55
2023/01/23 02:52:28;;;;;;;23.13;18.03;;;4.20;99.90;;;;;;4992729;28;20277;-52
2023/01/23 02:54:54;;;;;;;22.90;16.77;;;4.20;99.90;;;;;;4983244;28;20184;-54
2023/01/23 02:57:20;;;;;;;22.17;17.00;;;4.20;99.90;;;;;;4973002;28;20170;-53
2023/01/23 03:02:29;;;;;;;21.50;16.67;;;4.20;99.90;;;;;;4992281;28;20204;-51
2023/01/23 03:04:55;;;;;;;22.57;17.93;;;4.20;99.90;;;;;;4990644;28;20186;-55
2023/01/23 03:07:20;;;;;;;23.00;18.20;;;4.20;99.90;;;;;;4975733;28;20877;-53
2023/01/23 03:09:47;;;;;;;22.63;17.53;;;4.20;99.90;;;;;;4972769;28;20308;-53
2023/01/23 03:12:14;;;;;;;22.90;17.20;;;4.20;99.90;;;;;;4972693;28;20185;-54
2023/01/23 03:14:40;;;;;;;21.43;16.87;;;3.80;99.90;;;;;;4977910;28;20806;-53
2023/01/23 03:17:06;;;;;;;22.07;16.27;;;4.20;99.90;;;;;;4992408;28;20272;-52
2023/01/23 03:19:32;;;;;;;24.80;17.97;;;4.20;99.90;;;;;;4989653;28;20211;-55
2023/01/23 03:21:57;;;;;;;25.00;18.50;;;4.20;99.90;;;;;;4992129;28;20189;-55
2023/01/23 03:24:23;;;;;;;25.03;19.13;;;4.20;99.90;;;;;;4990964;28;20204;-55
2023/01/23 03:26:50;;;;;;;25.00;18.87;;;4.10;99.90;;;;;;4992179;28;20197;-54
2023/01/23 03:32:08;;;;;;;25.47;18.90;;;4.20;99.90;;;;;;4973127;28;20244;-53
2023/01/23 03:34:35;;;;;;;23.37;18.73;;;4.20;99.90;;;;;;4973288;28;20190;-51
2023/01/23 03:37:02;;;;;;;24.33;18.73;;;4.20;99.90;;;;;;4990916;28;20668;-55
2023/01/23 03:42:12;;;;;;;24.13;17.70;;;4.30;99.90;;;;;;4972313;28;20256;-55
2023/01/23 03:44:38;;;;;;;21.10;15.93;;;4.20;99.90;;;;;;4976366;28;20233;-53
2023/01/23 03:47:03;;;;;;;22.37;16.90;;;4.20;99.90;;;;;;4991453;28;20212;-54
2023/01/23 03:49:29;;;;;;;19.83;15.27;;;4.20;99.90;;;;;;4989100;28;20557;-54
2023/01/23 03:51:55;;;;;;;18.63;14.43;;;4.10;99.90;;;;;;4972406;28;20173;-54
2023/01/23 03:54:20;;;;;;;21.63;15.63;;;4.00;99.90;;;;;;4973378;28;20190;-55
2023/01/23 03:56:46;;;;;;;21.13;16.50;;;3.90;99.90;;;;;;4991551;28;20239;-55
2023/01/23 03:59:11;;;;;;;22.97;16.50;;;3.90;99.90;;;;;;4991153;28;20181;-54
2023/01/23 04:01:37;;;;;;;20.10;15.57;;;3.90;99.90;;;;;;4972381;28;20189;-55
2023/01/23 04:04:03;;;;;;;23.57;17.60;;;3.90;99.90;;;;;;4971661;28;20232;-53
2023/01/23 04:06:29;;;;;;;22.67;17.70;;;4.00;99.90;;;;;;4990617;28;20189;-53
2023/01/23 04:08:56;;;;;;;22.90;17.57;;;4.00;99.90;;;;;;4991844;28;20188;-51
2023/01/23 04:11:23;;;;;;;20.83;15.50;;;6.00;99.90;;;;;;4973989;28;20173;-50
2023/01/23 04:13:48;;;;;;;22.13;17.17;;;4.10;99.90;;;;;;4971999;28;20436;-54
2023/01/23 04:16:14;;;;;;;20.97;16.27;;;4.10;99.90;;;;;;4988160;28;20177;-51
2023/01/23 04:18:40;;;;;;;22.30;16.87;;;4.10;99.90;;;;;;4991691;28;20631;-52
2023/01/23 04:21:05;;;;;;;20.60;15.83;;;4.10;99.90;;;;;;4977178;28;20240;-52
2023/01/23 04:23:31;;;;;;;18.90;15.13;;;4.00;99.90;;;;;;4976009;28;20578;-54
2023/01/23 04:25:57;;;;;;;19.33;15.10;;;4.10;99.90;;;;;;4989455;28;20193;-53
2023/01/23 04:28:22;;;;;;;19.70;15.43;;;4.00;99.90;;;;;;4994896;28;20292;-54
2023/01/23 04:30:50;;;;;;;16.57;13.20;;;4.00;99.90;;;;;;4983068;28;20178;-52
2023/01/23 04:33:16;;;;;;;17.47;13.57;;;4.00;99.90;;;;;;4975399;28;20209;-53
2023/01/23 04:35:49;;;;;;;18.03;14.00;;;4.00;99.90;;;;;;4986923;28;20424;-52
2023/01/23 04:38:15;;;;;;;18.13;13.93;;;4.00;99.90;;;;;;4994982;28;20181;-54
2023/01/23 04:40:40;;;;;;;18.70;14.77;;;3.90;99.90;;;;;;4984161;28;20498;-54
2023/01/23 04:43:06;;;;;;;18.30;14.40;;;3.90;99.90;;;;;;4975691;28;20201;-53
2023/01/23 04:45:31;;;;;;;17.13;13.57;;;3.90;99.90;;;;;;4984731;28;20185;-55
2023/01/23 04:47:57;;;;;;;19.33;14.33;;;3.90;99.90;;;;;;4995098;28;20220;-53
2023/01/23 04:50:23;;;;;;;20.73;15.13;;;3.90;99.90;;;;;;4986502;28;20559;-54
2023/01/23 04:52:48;;;;;;;20.03;15.27;;;3.90;99.90;;;;;;4975520;28;20194;-51
2023/01/23 04:55:14;;;;;;;17.93;15.00;;;3.90;99.90;;;;;;4981565;28;20647;-54
2023/01/23 04:57:39;;;;;;;18.77;14.93;;;3.80;99.90;;;;;;4994966;28;20184;-53
2023/01/23 05:00:06;;;;;;;20.40;14.93;;;3.80;99.90;;;;;;4989308;28;20193;-55
2023/01/23 05:02:31;;;;;;;21.67;17.37;;;3.80;99.90;;;;;;4974974;28;20252;-54
2023/01/23 05:04:57;;;;;;;22.37;16.10;;;3.80;99.90;;;;;;4979369;28;20261;-55
2023/01/23 05:07:22;;;;;;;22.37;16.20;;;3.80;99.90;;;;;;4994280;28;20209;-52
2023/01/23 05:09:48;;;;;;;22.53;17.23;;;3.80;99.90;;;;;;4991641;28;20182;-53
2023/01/23 05:12:13;;;;;;;20.87;15.93;;;3.80;99.90;;;;;;4974832;28;20248;-53
2023/01/23 05:14:39;;;;;;;19.37;15.20;;;3.80;99.90;;;;;;4977865;28;20272;-54
2023/01/23 05:17:04;;;;;;;19.50;15.03;;;3.60;99.90;;;;;;4994514;28;20182;-54
2023/01/23 05:19:30;;;;;;;20.17;15.40;;;3.60;99.90;;;;;;4993155;28;20550;-53
2023/01/23 05:21:55;;;;;;;18.03;13.30;;;3.60;99.90;;;;;;4975118;28;20232;-55
2023/01/23 05:24:21;;;;;;;18.50;14.30;;;3.60;99.90;;;;;;4974152;28;20221;-55
2023/01/23 05:26:47;;;;;;;16.43;13.87;;;3.60;99.90;;;;;;4995369;28;20189;-52
2023/01/23 05:29:12;;;;;;;18.03;13.77;;;3.60;99.90;;;;;;5013865;28;20251;-51
2023/01/23 05:31:38;;;;;;;16.73;13.07;;;3.60;99.90;;;;;;4994722;28;20212;-52
2023/01/23 05:34:03;;;;;;;16.63;12.63;;;3.70;99.90;;;;;;4992609;28;20674;-51
2023/01/23 05:36:29;;;;;;;17.83;14.17;;;3.60;99.90;;;;;;4988341;28;20269;-53
2023/01/23 05:38:56;;;;;;;16.47;13.13;;;3.60;99.90;;;;;;4976528;28;20655;-55
2023/01/23 05:41:22;;;;;;;17.80;13.43;;;3.70;99.90;;;;;;4992186;28;20272;-55
2023/01/23 05:43:48;;;;;;;15.80;11.60;;;3.60;99.90;;;;;;4974759;28;20556;-55
2023/01/23 05:46:14;;;;;;;14.90;11.30;;;3.70;99.90;;;;;;4987455;28;20550;-54
2023/01/23 05:48:40;;;;;;;15.43;12.23;;;3.60;99.90;;;;;;4982954;28;20468;-52
2023/01/23 05:51:06;;;;;;;16.00;12.70;;;3.50;99.90;;;;;;4974629;28;20188;-55
2023/01/23 05:53:31;;;;;;;15.93;11.93;;;3.50;99.90;;;;;;4982107;28;20207;-54
2023/01/23 05:55:57;;;;;;;14.47;11.37;;;3.60;99.90;;;;;;4989953;28;20194;-55
2023/01/23 05:58:22;;;;;;;16.37;12.77;;;3.60;99.90;;;;;;4972605;28;20186;-52
2023/01/23 06:00:48;;;;;;;16.37;12.43;;;3.60;99.90;;;;;;4975067;28;20197;-54
2023/01/23 06:03:13;;;;;;;18.40;14.60;;;3.70;99.90;;;;;;4987942;28;20215;-55
2023/01/23 06:05:40;;;;;;;15.23;12.17;;;3.70;99.90;;;;;;4992148;28;20268;-47
2023/01/23 06:08:06;;;;;;;15.93;12.30;;;3.70;99.90;;;;;;4993482;28;20278;-51
2023/01/23 06:10:32;;;;;;;13.40;11.47;;;3.70;99.90;;;;;;5001143;28;20185;-49
2023/01/23 06:12:57;;;;;;;13.87;11.83;;;3.80;99.90;;;;;;4999181;28;20255;-49
2023/01/23 06:15:23;;;;;;;13.57;10.83;;;3.80;99.90;;;;;;5012171;28;20687;-55
2023/01/23 06:17:49;;;;;;;13.83;10.83;;;3.80;99.90;;;;;;5011814;28;20191;-50
2023/01/23 06:20:14;;;;;;;13.13;11.07;;;3.80;99.90;;;;;;5012454;28;20219;-55
2023/01/23 06:22:40;;;;;;;12.20;10.30;;;3.80;99.90;;;;;;4978864;28;20217;-54
2023/01/23 06:25:06;;;;;;;14.33;11.53;;;3.90;99.90;;;;;;4974572;28;20197;-53
2023/01/23 06:27:31;;;;;;;13.13;10.30;;;3.80;99.90;;;;;;4973443;28;20236;-55
2023/01/23 06:29:57;;;;;;;12.77;10.33;;;3.80;99.90;;;;;;4977939;28;20633;-53
2023/01/23 06:32:22;;;;;;;13.23;10.70;;;3.80;99.90;;;;;;4992706;28;20627;-53
2023/01/23 06:34:48;;;;;;;13.57;11.13;;;3.80;99.90;;;;;;4993340;28;20204;-54
2023/01/23 06:37:14;;;;;;;13.37;10.60;;;3.80;99.90;;;;;;4992183;28;20189;-51
2023/01/23 06:39:40;;;;;;;13.73;10.73;;;3.80;99.90;;;;;;4992580;28;20189;-50
2023/01/23 06:42:08;;;;;;;12.63;10.40;;;3.90;99.90;;;;;;4993011;28;20623;-48
2023/01/23 06:44:35;;;;;;;12.27;10.67;;;3.90;99.90;;;;;;4991156;28;20213;-53
2023/01/23 06:47:00;;;;;;;11.83;9.90;;;3.90;99.90;;;;;;4992151;28;20460;-52
2023/01/23 06:49:26;;;;;;;12.63;10.43;;;3.90;99.90;;;;;;4992340;28;20199;-51
2023/01/23 06:51:51;;;;;;;12.10;10.50;;;3.80;99.90;;;;;;4992743;28;20603;-50
2023/01/23 06:54:17;;;;;;;12.97;10.03;;;3.90;99.90;;;;;;5008720;28;20584;-54
2023/01/23 06:56:42;;;;;;;13.23;10.43;;;3.90;99.90;;;;;;5001766;28;20263;-53
2023/01/23 06:59:08;;;;;;;13.37;10.90;;;3.90;99.90;;;;;;4993033;28;20193;-52
2023/01/23 07:01:34;;;;;;;13.23;10.50;;;4.00;99.90;;;;;;4992612;28;20260;-52
2023/01/23 07:03:59;;;;;;;12.10;10.43;;;3.90;99.90;;;;;;4992626;28;20275;-52
2023/01/23 07:06:25;;;;;;;12.03;10.37;;;3.90;99.90;;;;;;4992372;28;20204;-52
2023/01/23 07:08:50;;;;;;;12.23;10.10;;;3.90;99.90;;;;;;4992631;28;20846;-51
2023/01/23 07:11:16;;;;;;;13.00;11.03;;;4.00;99.90;;;;;;4992583;28;20263;-52
2023/01/23 07:13:41;;;;;;;12.97;10.83;;;4.00;99.90;;;;;;5009578;28;20199;-53
2023/01/23 07:16:07;;;;;;;12.37;10.20;;;4.00;99.90;;;;;;5011908;28;20183;-53
2023/01/23 07:18:33;;;;;;;12.80;10.27;;;4.00;99.90;;;;;;5012029;28;20271;-53
2023/01/23 07:20:59;;;;;;;13.27;10.50;;;4.00;99.90;;;;;;5010581;28;20275;-52
2023/01/23 07:23:25;;;;;;;13.00;9.90;;;3.90;99.90;;;;;;5012124;28;20200;-54
2023/01/23 07:25:56;;;;;;;13.63;11.00;;;3.90;99.90;;;;;;5011777;28;20184;-52
2023/01/23 07:28:22;;;;;;;13.97;10.77;;;3.90;99.90;;;;;;5011825;28;20276;-51
2023/01/23 07:30:49;;;;;;;12.37;10.70;;;4.00;99.90;;;;;;4994187;28;20212;-52
2023/01/23 07:33:15;;;;;;;12.00;10.47;;;4.10;99.90;;;;;;4992002;28;20740;-52
2023/01/23 07:35:40;;;;;;;12.77;11.30;;;4.20;99.90;;;;;;4991794;28;20177;-53
2023/01/23 07:38:06;;;;;;;13.80;11.03;;;4.20;99.90;;;;;;4992144;28;20229;-54
2023/01/23 07:40:31;;;;;;;13.50;11.47;;;4.20;99.90;;;;;;4992292;28;20223;-51
2023/01/23 07:42:57;;;;;;;13.03;10.63;;;4.20;99.90;;;;;;4992081;28;20201;-55
2023/01/23 07:45:22;;;;;;;13.83;10.57;;;4.20;99.90;;;;;;4991728;28;20184;-53
2023/01/23 07:47:48;;;;;;;13.47;10.00;;;4.20;99.90;;;;;;4992005;28;20680;-51
2023/01/23 07:50:13;;;;;;;12.63;10.83;;;4.20;99.90;;;;;;4991982;28;20181;-52
2023/01/23 07:52:39;;;;;;;12.53;9.90;;;4.10;99.90;;;;;;4992069;28;20213;-53
2023/01/23 07:55:05;;;;;;;13.67;10.80;;;4.10;99.90;;;;;;4991539;28;20192;-54
2023/01/23 07:57:32;;;;;;;13.23;10.83;;;4.00;99.90;;;;;;4991990;28;20177;-53
2023/01/23 07:59:58;;;;;;;13.47;11.27;;;4.00;99.90;;;;;;4991937;28;20173;-52
2023/01/23 08:02:24;;;;;;;13.53;11.57;;;4.10;99.90;;;;;;4991981;28;20667;-52
2023/01/23 08:04:49;;;;;;;14.97;10.50;;;4.10;99.90;;;;;;4991930;28;20535;-55
2023/01/23 08:07:15;;;;;;;14.47;11.27;;;4.10;99.90;;;;;;4991769;28;20213;-54
2023/01/23 08:09:40;;;;;;;13.57;10.73;;;4.00;99.90;;;;;;4991925;28;20650;-52
2023/01/23 08:12:06;;;;;;;13.80;11.10;;;4.00;99.90;;;;;;4991991;28;20188;-52
2023/01/23 08:14:31;;;;;;;13.33;10.97;;;4.00;99.90;;;;;;4991446;28;20193;-55
2023/01/23 08:16:57;;;;;;;13.53;11.03;;;4.00;99.90;;;;;;4991812;28;20260;-51
2023/01/23 08:19:26;;;;;;;14.30;11.70;;;4.10;99.90;;;;;;4991630;28;20185;-52
2023/01/23 08:21:51;;;;;;;15.30;12.60;;;4.20;99.90;;;;;;4991879;28;20183;-55
2023/01/23 08:24:17;;;;;;;16.00;13.40;;;4.20;99.90;;;;;;4991609;28;20554;-54
2023/01/23 08:26:43;;;;;;;15.97;12.50;;;4.30;99.90;;;;;;4991705;28;20181;-51
2023/01/23 08:29:09;;;;;;;13.70;11.20;;;4.40;99.90;;;;;;4991706;28;20216;-53
2023/01/23 08:31:35;;;;;;;14.87;11.50;;;4.40;99.90;;;;;;4991862;28;20392;-56
2023/01/23 08:34:01;;;;;;;14.10;11.10;;;4.50;99.90;;;;;;4991261;28;20307;-55
2023/01/23 08:36:27;;;;;;;13.23;10.77;;;4.50;99.90;;;;;;4990306;28;20515;-55
2023/01/23 08:38:52;;;;;;;16.57;13.90;;;4.50;99.90;;;;;;4991818;28;20465;-55
2023/01/23 08:41:18;;;;;;;17.77;14.30;;;4.60;99.90;;;;;;4991663;28;20239;-55
2023/01/23 08:43:44;;;;;;;18.90;15.53;;;4.60;99.90;;;;;;4991271;28;20659;-55
2023/01/23 08:46:10;;;;;;;15.97;13.03;;;4.70;99.90;;;;;;4991609;28;20169;-53
2023/01/23 08:48:36;;;;;;;15.80;12.23;;;4.70;99.90;;;;;;4991365;28;20204;-54
2023/01/23 08:51:07;;;;;;;17.63;14.60;;;4.80;99.90;;;;;;4991588;28;20173;-53
2023/01/23 08:53:33;;;;;;;14.60;11.80;;;4.90;99.90;;;;;;4991319;28;20189;-55
2023/01/23 08:56:04;;;;;;;13.27;11.47;;;6.20;99.90;;;;;;4991492;28;20229;-55
2023/01/23 08:58:30;;;;;;;14.70;11.20;;;4.90;99.90;;;;;;4991531;28;20169;-55
2023/01/23 09:00:56;;;;;;;15.13;12.00;;;4.80;99.90;;;;;;4991487;28;20236;-50
2023/01/23 09:03:21;;;;;;;15.47;12.30;;;4.70;99.90;;;;;;4991315;28;20199;-55
2023/01/23 09:05:47;;;;;;;15.40;12.00;;;4.60;99.90;;;;;;4991139;28;20173;-56
2023/01/23 09:08:13;;;;;;;15.73;11.97;;;4.40;99.90;;;;;;4993887;28;20255;-53
2023/01/23 09:10:38;;;;;;;13.47;11.33;;;4.30;99.90;;;;;;4994957;28;20261;-51
2023/01/23 09:13:04;;;;;;;14.03;11.30;;;4.40;99.90;;;;;;4995170;28;20196;-52
2023/01/23 09:15:30;;;;;;;14.33;11.63;;;4.40;99.90;;;;;;4994552;28;20527;-55
2023/01/23 09:17:56;;;;;;;15.43;12.40;;;4.40;99.90;;;;;;4994755;28;20546;-54
2023/01/23 09:20:21;;;;;;;15.33;12.27;;;4.50;99.90;;;;;;4994804;28;20177;-52
2023/01/23 09:22:47;;;;;;;13.97;11.40;;;4.50;99.90;;;;;;4994677;28;20219;-52
2023/01/23 09:25:13;;;;;;;15.47;11.83;;;4.50;99.90;;;;;;4994464;28;20173;-55
2023/01/23 09:27:39;;;;;;;14.07;12.20;;;4.50;99.90;;;;;;4994531;28;20249;-54
2023/01/23 09:30:06;;;;;;;13.63;11.10;;;4.70;99.90;;;;;;4994577;28;20578;-56
2023/01/23 09:32:31;;;;;;;15.37;10.70;;;4.70;99.90;;;;;;4994377;28;20323;-54
2023/01/23 09:34:57;;;;;;;12.63;10.70;;;4.80;99.90;;;;;;4994153;28;20709;-54
2023/01/23 09:37:22;;;;;;;12.93;10.77;;;4.80;99.90;;;;;;4994434;28;20173;-52
2023/01/23 09:39:48;;;;;;;11.73;9.77;;;4.90;99.90;;;;;;4994449;28;20180;-53
2023/01/23 09:42:26;;;;;;;12.67;10.23;;;5.00;99.90;;;;;;4994271;28;20204;-51
2023/01/23 09:45:02;;;;;;;10.80;9.43;;;5.00;99.90;;;;;;4994072;28;20181;-54
2023/01/23 09:47:43;;;;;;;13.60;10.70;;;5.00;99.90;;;;;;4994094;28;20263;-55
2023/01/23 09:50:15;;;;;;;12.17;9.80;;;5.20;99.90;;;;;;4994170;28;20170;-51
2023/01/23 09:52:47;;;;;;;13.97;10.87;;;5.30;99.90;;;;;;4992790;28;20200;-52
2023/01/23 09:55:31;;;;;;;11.63;9.67;;;5.50;99.90;;;;;;4993814;28;20169;-55
2023/01/23 09:57:59;;;;;;;11.87;9.80;;;5.60;99.90;;;;;;4993938;28;20184;-55
2023/01/23 10:00:31;;;;;;;13.87;10.97;;;5.60;99.90;;;;;;4994084;28;20177;-54
2023/01/23 10:03:00;;;;;;;13.47;11.03;;;5.50;99.90;;;;;;4993893;28;20287;-55
2023/01/23 10:05:55;;;;;;;13.10;10.83;;;5.30;99.90;;;;;;4993591;28;20694;-51
2023/01/23 10:08:44;;;;;;;12.00;9.90;;;5.00;99.90;;;;;;4993777;28;20228;-51
2023/01/23 10:11:19;;;;;;;13.27;11.33;;;4.90;99.90;;;;;;4993908;28;20642;-53
2023/01/23 10:13:44;;;;;;;14.30;11.77;;;5.10;99.90;;;;;;4993364;28;20211;-52
2023/01/23 10:16:47;;;;;;;12.70;10.93;;;5.50;99.90;;;;;;4993581;28;20177;-52
2023/01/23 10:19:13;;;;;;;12.50;10.10;;;6.40;99.90;;;;;;4993637;28;20181;-53
2023/01/23 10:21:57;;;;;;;13.27;11.80;;;6.80;99.90;;;;;;4993462;28;20252;-53
2023/01/23 10:24:48;;;;;;;12.40;11.10;;;7.60;99.90;;;;;;4993162;28;20293;-53
2023/01/23 10:27:40;;;;;;;11.97;10.73;;;8.40;99.90;;;;;;4993457;28;20189;-56
2023/01/23 10:30:29;;;;;;;13.07;11.00;;;9.20;99.90;;;;;;4984900;28;20590;-56
2023/01/23 10:32:59;;;;;;;11.60;10.13;;;9.50;99.90;;;;;;4993171;28;20255;-53
2023/01/23 10:35:50;;;;;;;12.50;11.20;;;9.50;99.90;;;;;;4993098;28;20181;-55
2023/01/23 10:38:38;;;;;;;12.87;10.80;;;9.40;99.90;;;;;;4993178;28;20177;-55
2023/01/23 10:41:18;;;;;;;12.47;11.13;;;9.50;99.90;;;;;;4993284;28;20169;-51
2023/01/23 10:43:50;;;;;;;12.17;10.97;;;9.70;99.90;;;;;;4992861;28;20235;-52
2023/01/23 10:46:34;;;;;;;12.93;11.10;;;10.30;99.90;;;;;;4991754;28;20176;-52
2023/01/23 10:49:01;;;;;;;13.03;11.27;;;10.60;99.90;;;;;;4993002;28;20674;-53
2023/01/23 10:51:37;;;;;;;13.00;11.53;;;10.40;99.90;;;;;;4993032;28;20534;-53
2023/01/23 10:54:13;;;;;;;14.10;12.70;;;10.00;99.90;;;;;;4992968;28;20192;-51
2023/01/23 10:56:57;;;;;;;13.20;11.17;;;9.60;99.90;;;;;;4992930;28;20248;-52
2023/01/23 10:59:33;;;;;;;12.57;10.87;;;9.20;99.90;;;;;;4992994;28;20212;-53
2023/01/23 11:02:15;;;;;;;12.73;11.40;;;8.90;99.90;;;;;;4992854;28;20180;-54
2023/01/23 11:04:44;;;;;;;12.93;10.97;;;8.90;99.90;;;;;;4992444;28;20180;-55
2023/01/23 11:07:23;;;;;;;13.87;11.37;;;9.00;99.90;;;;;;4992689;28;20192;-53
2023/01/23 11:10:00;;;;;;;12.20;10.90;;;9.10;99.90;;;;;;4992727;28;20227;-56
2023/01/23 11:12:27;;;;;;;13.23;11.43;;;9.80;99.90;;;;;;4992414;28;20169;-52
2023/01/23 11:15:20;;;;;;;11.80;10.47;;;10.70;99.90;;;;;;4992373;28;20665;-54
2023/01/23 11:17:47;;;;;;;12.70;10.90;;;11.10;99.90;;;;;;4992700;28;20189;-52
2023/01/23 11:20:29;;;;;;;13.63;11.50;;;11.40;99.90;;;;;;4992571;28;20173;-49
2023/01/23 11:23:13;;;;;;;13.10;11.77;;;11.70;99.90;;;;;;4992367;28;20296;-53
2023/01/23 11:25:51;;;;;;;14.93;12.27;;;11.80;99.40;;;;;;4992451;28;20255;-54
2023/01/23 11:28:26;;;;;;;14.80;13.17;;;11.70;99.30;;;;;;4992775;28;20197;-52
2023/01/23 11:31:16;;;;;;;16.30;14.60;;;11.50;99.30;;;;;;4991755;28;20259;-52
2023/01/23 11:34:11;;;;;;;17.23;15.43;;;10.90;99.90;;;;;;4991862;28;20267;-52
2023/01/23 11:36:58;;;;;;;16.97;15.10;;;10.00;99.90;;;;;;4992194;28;20169;-55
2023/01/23 11:39:27;;;;;;;16.97;15.17;;;9.40;99.90;;;;;;4992177;28;20185;-52
2023/01/23 11:41:53;;;;;;;18.10;15.80;;;8.80;99.90;;;;;;4992192;28;20177;-55
2023/01/23 11:44:20;;;;;;;19.37;17.00;;;8.20;99.90;;;;;;4991858;28;20548;-53
2023/01/23 11:46:46;;;;;;;20.10;17.27;;;7.80;99.90;;;;;;4991883;28;20173;-54
2023/01/23 11:49:47;;;;;;;18.03;16.07;;;7.50;99.90;;;;;;4992128;28;20223;-54
2023/01/23 11:52:27;;;;;;;18.00;15.67;;;7.50;99.90;;;;;;4991926;28;20165;-53
2023/01/23 11:55:02;;;;;;;20.47;16.70;;;7.60;99.90;;;;;;4991892;28;20180;-54
2023/01/23 11:57:46;;;;;;;22.90;19.53;;;7.60;99.90;;;;;;4990659;28;20177;-52
2023/01/23 12:00:14;;;;;;;53.97;40.17;;;7.50;99.90;;;;;;4991927;28;20212;-54
2023/01/23 12:02:58;;;;;;;23.80;18.77;;;7.30;99.90;;;;;;4991800;28;20189;-54
2023/01/23 12:05:49;;;;;;;21.83;16.97;;;7.00;99.90;;;;;;4991930;28;20181;-53
2023/01/23 12:08:19;;;;;;;19.57;15.50;;;6.90;99.90;;;;;;4991842;28;20199;-52
2023/01/23 12:11:15;;;;;;;17.57;14.03;;;6.90;99.90;;;;;;4990578;28;20227;-53
2023/01/23 12:14:03;;;;;;;21.63;17.73;;;6.90;99.90;;;;;;4983429;28;20579;-53
2023/01/23 12:16:47;;;;;;;18.63;15.57;;;6.90;99.90;;;;;;4991585;28;20267;-52
2023/01/23 12:19:24;;;;;;;18.80;15.00;;;6.90;99.90;;;;;;4991991;28;20188;-52
2023/01/23 12:22:18;;;;;;;24.67;20.57;;;6.90;99.90;;;;;;4991706;28;20169;-52
2023/01/23 12:25:12;;;;;;;20.00;16.97;;;7.00;99.90;;;;;;4954913;28;20196;-52
2023/01/23 12:27:44;;;;;;;18.60;15.17;;;7.00;99.90;;;;;;4977733;28;20295;-52
2023/01/23 12:30:40;;;;;;;19.73;16.13;;;7.00;99.90;;;;;;4991789;28;20277;-51
2023/01/23 12:33:20;;;;;;;19.40;16.17;;;7.00;99.90;;;;;;4991457;28;20209;-54
2023/01/23 12:36:22;;;;;;;19.83;15.77;;;7.00;99.90;;;;;;4992924;28;20647;-53
2023/01/23 12:39:12;;;;;;;17.77;14.73;;;6.90;99.90;;;;;;4948452;28;20189;-52
2023/01/23 12:42:02;;;;;;;19.63;15.03;;;6.80;99.90;;;;;;4991821;28;20172;-51
2023/01/23 12:44:40;;;;;;;19.10;14.53;;;6.80;99.90;;;;;;4995045;28;20203;-52
2023/01/23 12:47:19;;;;;;;20.63;16.20;;;6.70;99.90;;;;;;4995366;28;20589;-54
2023/01/23 12:49:52;;;;;;;17.13;13.97;;;6.70;99.90;;;;;;4995818;28;20173;-54
2023/01/23 12:52:43;;;;;;;17.13;13.80;;;6.70;99.90;;;;;;4995319;28;20650;-52
2023/01/23 12:55:27;;;;;;;18.00;14.63;;;6.60;99.90;;;;;;4995051;28;20169;-53
2023/01/23 12:57:55;;;;;;;18.17;14.60;;;6.60;99.90;;;;;;4995248;28;20669;-55
2023/01/23 13:00:56;;;;;;;16.27;14.20;;;6.60;99.90;;;;;;4995216;28;20169;-52